createdAt,value
2017-11-18T00:02:19.071Z,16.70
2017-11-18T00:04:47.391Z,15.60
2017-11-18T00:07:15.689Z,16.57
2017-11-18T00:09:43.976Z,14.23
2017-11-18T00:12:12.313Z,15.20
2017-11-18T00:14:40.643Z,18.23
2017-11-18T00:17:08.968Z,18.23
2017-11-18T00:19:38.012Z,22.60
2017-11-18T00:22:07.107Z,21.67
2017-11-18T00:24:35.456Z,22.60
2017-11-18T00:27:04.563Z,20.30
2017-11-18T00:29:33.683Z,23.47
2017-11-18T00:32:03.585Z,24.77
2017-11-18T00:34:31.927Z,22.87
2017-11-18T00:37:00.276Z,23.97
2017-11-18T00:39:28.590Z,23.07
2017-11-18T00:41:56.882Z,24.77
2017-11-18T00:44:25.185Z,25.57
2017-11-18T00:46:54.286Z,24.57
2017-11-18T00:49:22.592Z,22.40
2017-11-18T00:51:50.890Z,26.37
2017-11-18T00:54:19.201Z,26.53
2017-11-18T00:56:47.528Z,24.90
2017-11-18T00:59:15.817Z,24.47
2017-11-18T01:01:44.164Z,24.40
2017-11-18T01:04:12.452Z,24.17
2017-11-18T01:06:40.831Z,24.47
2017-11-18T01:09:09.121Z,23.87
2017-11-18T01:11:37.420Z,21.60
2017-11-18T01:14:05.737Z,21.77
2017-11-18T01:16:34.071Z,21.40
2017-11-18T01:19:02.461Z,21.03
2017-11-18T01:21:30.841Z,21.80
2017-11-18T01:23:59.171Z,23.43
2017-11-18T01:26:27.460Z,19.30
2017-11-18T01:28:55.783Z,23.10
2017-11-18T01:31:24.073Z,21.30
2017-11-18T01:34:00.879Z,19.83
2017-11-18T01:36:29.174Z,18.63
2017-11-18T01:38:57.464Z,19.27
2017-11-18T01:41:26.585Z,19.27
2017-11-18T01:43:54.905Z,20.77
2017-11-18T01:46:23.197Z,22.90
2017-11-18T01:48:51.512Z,22.03
2017-11-18T01:51:19.845Z,18.33
2017-11-18T01:53:48.139Z,20.83
2017-11-18T01:56:17.210Z,21.20
2017-11-18T01:58:45.519Z,19.90
2017-11-18T02:01:13.828Z,19.10
2017-11-18T02:03:42.143Z,20.13
2017-11-18T02:06:10.449Z,19.90
2017-11-18T02:08:38.840Z,22.13
2017-11-18T02:11:07.144Z,18.83
2017-11-18T02:13:35.449Z,18.00
2017-11-18T02:16:03.855Z,19.07
2017-11-18T02:18:32.253Z,17.20
2017-11-18T02:21:01.065Z,17.30
2017-11-18T02:23:29.377Z,16.07
2017-11-18T02:25:57.659Z,14.87
2017-11-18T02:28:25.973Z,16.10
2017-11-18T02:30:54.269Z,17.47
2017-11-18T02:33:22.600Z,18.07
2017-11-18T02:35:50.883Z,17.00
2017-11-18T02:38:19.940Z,17.07
2017-11-18T02:40:48.279Z,18.10
2017-11-18T02:43:16.596Z,19.53
2017-11-18T02:45:44.910Z,18.50
2017-11-18T02:48:13.217Z,18.80
2017-11-18T02:50:42.296Z,20.43
2017-11-18T02:53:10.679Z,21.07
2017-11-18T02:55:38.986Z,19.10
2017-11-18T02:58:07.269Z,20.27
2017-11-18T03:00:35.584Z,20.43
2017-11-18T03:03:03.867Z,21.97
2017-11-18T03:05:32.230Z,21.37
2017-11-18T03:08:00.515Z,20.47
2017-11-18T03:10:28.827Z,21.90
2017-11-18T03:12:57.210Z,21.10
2017-11-18T03:15:26.310Z,23.17
2017-11-18T03:17:54.619Z,23.10
2017-11-18T03:20:22.903Z,23.20
2017-11-18T03:22:51.231Z,22.60
2017-11-18T03:25:19.532Z,19.97
2017-11-18T03:27:47.859Z,20.10
2017-11-18T03:30:16.142Z,24.50
2017-11-18T03:32:44.529Z,23.17
2017-11-18T03:35:13.595Z,21.77
2017-11-18T03:37:41.941Z,24.40
2017-11-18T03:40:10.273Z,23.90
2017-11-18T03:42:38.591Z,23.87
2017-11-18T03:45:06.916Z,22.67
2017-11-18T03:47:35.216Z,24.90
2017-11-18T03:50:03.560Z,23.40
2017-11-18T03:52:31.900Z,23.00
2017-11-18T03:55:00.196Z,23.93
2017-11-18T03:57:28.488Z,23.37
2017-11-18T03:59:56.844Z,23.97
2017-11-18T04:02:25.156Z,25.37
2017-11-18T04:04:53.468Z,24.97
2017-11-18T04:07:21.757Z,24.10
2017-11-18T04:09:50.080Z,25.43
2017-11-18T04:12:18.412Z,25.30
2017-11-18T04:14:46.688Z,23.07
2017-11-18T04:17:15.011Z,23.73
2017-11-18T04:19:43.325Z,21.20
2017-11-18T04:22:11.621Z,26.80
2017-11-18T04:24:39.969Z,24.90
2017-11-18T04:27:09.015Z,24.07
2017-11-18T04:29:37.311Z,23.23
2017-11-18T04:32:06.371Z,21.43
2017-11-18T04:34:34.684Z,20.53
2017-11-18T04:37:03.025Z,22.03
2017-11-18T04:39:32.088Z,25.00
2017-11-18T04:42:00.423Z,20.33
2017-11-18T04:44:28.732Z,21.50
2017-11-18T04:46:57.017Z,19.60
2017-11-18T04:49:25.345Z,16.27
2017-11-18T04:51:53.643Z,19.17
2017-11-18T04:54:21.927Z,16.30
2017-11-18T04:56:50.235Z,16.57
2017-11-18T04:59:18.531Z,13.87
2017-11-18T05:01:46.860Z,17.60
2017-11-18T05:04:15.168Z,14.67
2017-11-18T05:06:43.484Z,13.50
2017-11-18T05:09:11.794Z,13.20
2017-11-18T05:11:40.121Z,14.17
2017-11-18T05:14:09.200Z,14.37
2017-11-18T05:16:37.525Z,15.90
2017-11-18T05:19:05.826Z,12.77
2017-11-18T05:21:34.169Z,15.20
2017-11-18T05:24:02.519Z,11.80
2017-11-18T05:26:30.832Z,14.00
2017-11-18T05:28:59.155Z,15.70
2017-11-18T05:31:27.445Z,15.97
2017-11-18T05:33:59.511Z,13.23
2017-11-18T05:36:27.841Z,14.40
2017-11-18T05:38:56.120Z,13.27
2017-11-18T05:41:24.452Z,12.47
2017-11-18T05:43:52.761Z,13.60
2017-11-18T05:46:21.081Z,11.23
2017-11-18T05:48:49.409Z,13.93
2017-11-18T05:51:18.432Z,11.17
2017-11-18T05:53:47.504Z,11.63
2017-11-18T05:56:15.828Z,11.47
2017-11-18T05:58:44.117Z,11.83
2017-11-18T06:01:12.489Z,11.90
2017-11-18T06:03:40.820Z,11.07
2017-11-18T06:06:09.132Z,12.00
2017-11-18T06:08:37.452Z,10.67
2017-11-18T06:11:05.785Z,9.97
2017-11-18T06:13:34.105Z,11.53
2017-11-18T06:16:02.423Z,11.27
2017-11-18T06:18:31.478Z,11.30
2017-11-18T06:20:59.830Z,10.07
2017-11-18T06:23:28.113Z,13.57
2017-11-18T06:25:57.355Z,11.70
2017-11-18T06:28:25.717Z,10.37
2017-11-18T06:30:54.012Z,11.10
2017-11-18T06:33:22.337Z,12.17
2017-11-18T06:35:50.628Z,13.20
2017-11-18T06:38:19.721Z,10.90
2017-11-18T06:40:48.098Z,12.23
2017-11-18T06:43:16.460Z,11.70
2017-11-18T06:45:44.797Z,11.60
2017-11-18T06:48:13.879Z,13.00
2017-11-18T06:50:42.180Z,13.00
2017-11-18T06:53:10.475Z,12.87
2017-11-18T06:55:38.796Z,12.27
2017-11-18T06:58:07.115Z,11.17
2017-11-18T07:00:35.418Z,14.37
2017-11-18T07:03:03.734Z,14.67
2017-11-18T07:05:33.767Z,12.63
2017-11-18T07:08:02.208Z,13.80
2017-11-18T07:10:31.310Z,15.93
2017-11-18T07:12:59.678Z,13.03
2017-11-18T07:15:28.747Z,12.60
2017-11-18T07:17:57.076Z,12.03
2017-11-18T07:20:25.385Z,11.57
2017-11-18T07:22:53.788Z,15.20
2017-11-18T07:25:22.063Z,13.10
2017-11-18T07:27:50.386Z,13.90
2017-11-18T07:30:18.708Z,15.07
2017-11-18T07:32:47.008Z,16.70
2017-11-18T07:35:15.318Z,14.60
2017-11-18T07:37:43.623Z,14.77
2017-11-18T07:40:11.901Z,15.57
2017-11-18T07:42:40.233Z,14.50
2017-11-18T07:45:09.314Z,14.03
2017-11-18T07:47:38.556Z,13.77
2017-11-18T07:50:06.910Z,15.90
2017-11-18T07:52:36.817Z,13.87
2017-11-18T07:55:05.145Z,14.90
2017-11-18T07:57:37.526Z,15.03
2017-11-18T08:00:11.174Z,15.20
2017-11-18T08:02:40.546Z,15.77
2017-11-18T08:05:10.551Z,14.47
2017-11-18T08:07:39.768Z,14.97
2017-11-18T08:10:08.518Z,13.57
2017-11-18T08:12:36.933Z,14.80
2017-11-18T08:15:06.059Z,14.67
2017-11-18T08:17:35.097Z,14.03
2017-11-18T08:20:03.457Z,15.00
2017-11-18T08:22:31.807Z,15.93
2017-11-18T08:25:01.057Z,16.67
2017-11-18T08:27:29.373Z,15.20
2017-11-18T08:29:57.652Z,14.70
2017-11-18T08:32:26.905Z,13.80
2017-11-18T08:34:55.264Z,14.37
2017-11-18T08:37:24.308Z,15.13
2017-11-18T08:39:52.613Z,16.13
2017-11-18T08:42:20.905Z,15.70
2017-11-18T08:44:49.981Z,14.30
2017-11-18T08:47:18.275Z,15.03
2017-11-18T08:49:46.608Z,14.20
2017-11-18T08:52:14.883Z,15.97
2017-11-18T08:54:43.168Z,14.77
2017-11-18T08:57:11.485Z,14.63
2017-11-18T08:59:39.804Z,13.87
2017-11-18T09:02:11.225Z,13.57
2017-11-18T09:04:39.513Z,14.60
2017-11-18T09:07:07.796Z,12.60
2017-11-18T09:09:36.116Z,14.13
2017-11-18T09:12:05.184Z,12.73
2017-11-18T09:14:33.512Z,13.40
2017-11-18T09:17:01.827Z,13.50
2017-11-18T09:19:30.135Z,14.53
2017-11-18T09:21:58.439Z,15.60
2017-11-18T09:24:26.744Z,14.90
2017-11-18T09:26:55.796Z,15.33
2017-11-18T09:29:24.124Z,14.60
2017-11-18T09:31:52.420Z,14.63
2017-11-18T09:34:22.408Z,13.37
2017-11-18T09:36:50.684Z,12.70
2017-11-18T09:39:19.764Z,11.60
2017-11-18T09:41:48.296Z,11.30
2017-11-18T09:44:16.596Z,11.30
2017-11-18T09:46:44.937Z,10.60
2017-11-18T09:49:14.000Z,10.47
2017-11-18T09:51:42.311Z,10.37
2017-11-18T09:54:11.341Z,11.00
2017-11-18T09:56:41.897Z,12.33
2017-11-18T09:59:10.276Z,10.70
2017-11-18T10:01:38.586Z,11.67
2017-11-18T10:04:06.893Z,11.33
2017-11-18T10:06:35.941Z,9.43
2017-11-18T10:09:05.686Z,9.73
2017-11-18T10:11:34.764Z,9.27
2017-11-18T10:14:03.087Z,10.90
2017-11-18T10:16:31.416Z,8.80
2017-11-18T10:19:00.512Z,7.60
2017-11-18T10:21:28.812Z,8.70
2017-11-18T10:23:57.116Z,11.33
2017-11-18T10:26:25.400Z,9.10
2017-11-18T10:28:53.712Z,7.70
2017-11-18T10:31:21.992Z,8.47
2017-11-18T10:33:50.300Z,7.07
2017-11-18T10:36:19.344Z,7.80
2017-11-18T10:38:47.717Z,8.40
2017-11-18T10:41:16.061Z,7.60
2017-11-18T10:43:45.109Z,9.70
2017-11-18T10:46:13.425Z,8.87
2017-11-18T10:48:42.966Z,8.80
2017-11-18T10:51:12.267Z,8.40
2017-11-18T10:53:40.577Z,8.70
2017-11-18T10:56:11.975Z,9.03
2017-11-18T10:58:42.082Z,7.80
2017-11-18T11:01:10.744Z,8.00
2017-11-18T11:03:39.091Z,7.40
2017-11-18T11:06:07.499Z,5.70
2017-11-18T11:08:35.844Z,5.17
2017-11-18T11:11:04.152Z,3.50
2017-11-18T11:13:32.474Z,4.03
2017-11-18T11:16:00.803Z,3.33
2017-11-18T11:18:29.115Z,3.73
2017-11-18T11:20:57.396Z,2.50
2017-11-18T11:23:25.674Z,2.90
2017-11-18T11:25:54.032Z,2.50
2017-11-18T11:28:23.083Z,2.67
2017-11-18T11:30:51.388Z,2.47
2017-11-18T11:33:19.709Z,2.80
2017-11-18T11:35:48.008Z,3.60
2017-11-18T11:38:16.287Z,3.10
2017-11-18T11:40:44.607Z,2.93
2017-11-18T11:43:12.896Z,2.90
2017-11-18T11:45:41.217Z,3.40
2017-11-18T11:48:09.519Z,3.17
2017-11-18T11:50:37.820Z,5.20
2017-11-18T11:53:06.151Z,4.37
2017-11-18T11:55:34.483Z,6.07
2017-11-18T11:58:03.552Z,3.53
2017-11-18T12:00:31.918Z,3.03
2017-11-18T12:03:00.211Z,2.80
2017-11-18T12:05:28.533Z,3.70
2017-11-18T12:07:56.874Z,3.20
2017-11-18T12:10:25.178Z,3.70
2017-11-18T12:12:56.720Z,4.23
2017-11-18T12:15:25.033Z,5.07
2017-11-18T12:17:53.340Z,3.13
2017-11-18T12:20:21.632Z,4.00
2017-11-18T12:22:49.956Z,4.00
2017-11-18T12:25:18.275Z,3.33
2017-11-18T12:27:46.559Z,4.10
2017-11-18T12:30:14.906Z,3.97
2017-11-18T12:32:43.210Z,4.03
2017-11-18T12:35:11.541Z,3.27
2017-11-18T12:37:39.816Z,3.70
2017-11-18T12:40:08.920Z,3.90
2017-11-18T12:42:37.968Z,3.93
2017-11-18T12:45:06.271Z,3.83
2017-11-18T12:47:34.585Z,3.10
2017-11-18T12:50:06.615Z,3.53
2017-11-18T12:52:34.908Z,2.43
2017-11-18T12:55:05.166Z,3.70
2017-11-18T12:57:33.477Z,3.87
2017-11-18T13:00:01.887Z,2.70
2017-11-18T13:02:30.216Z,2.97
2017-11-18T13:04:59.496Z,3.30
2017-11-18T13:07:27.811Z,3.03
2017-11-18T13:09:56.139Z,3.73
2017-11-18T13:12:24.499Z,3.83
2017-11-18T13:14:52.771Z,3.83
2017-11-18T13:17:21.064Z,3.37
2017-11-18T13:19:50.112Z,3.73
2017-11-18T13:22:19.188Z,3.47
2017-11-18T13:24:47.479Z,3.93
2017-11-18T13:27:15.745Z,4.20
2017-11-18T13:29:44.827Z,3.37
2017-11-18T13:32:13.113Z,4.10
2017-11-18T13:34:41.400Z,3.60
2017-11-18T13:37:09.706Z,3.47
2017-11-18T13:39:38.000Z,3.90
2017-11-18T13:42:06.297Z,4.13
2017-11-18T13:44:34.608Z,4.03
2017-11-18T13:47:02.923Z,3.50
2017-11-18T13:49:31.368Z,3.80
2017-11-18T13:51:59.688Z,6.50
2017-11-18T13:54:27.996Z,3.83
2017-11-18T13:56:56.314Z,4.10
2017-11-18T13:59:25.372Z,2.97
2017-11-18T14:01:53.652Z,3.10
2017-11-18T14:04:22.811Z,3.20
2017-11-18T14:06:51.115Z,3.53
2017-11-18T14:09:19.393Z,4.07
2017-11-18T14:11:47.701Z,2.93
2017-11-18T14:14:15.994Z,3.53
2017-11-18T14:16:44.270Z,4.00
2017-11-18T14:19:13.348Z,2.70
2017-11-18T14:21:41.619Z,3.00
2017-11-18T14:24:09.912Z,2.73
2017-11-18T14:26:38.202Z,1.90
2017-11-18T14:29:06.555Z,2.40
2017-11-18T14:31:34.857Z,2.03
2017-11-18T14:34:03.173Z,2.87
2017-11-18T14:36:31.472Z,3.33
2017-11-18T14:38:59.769Z,3.93
2017-11-18T14:41:28.089Z,2.33
2017-11-18T14:43:56.530Z,3.63
2017-11-18T14:46:24.807Z,3.33
2017-11-18T14:48:53.902Z,4.00
2017-11-18T14:51:22.980Z,3.93
2017-11-18T14:53:51.265Z,3.90
2017-11-18T14:56:19.592Z,4.47
2017-11-18T14:58:47.872Z,3.40
2017-11-18T15:01:16.202Z,3.50
2017-11-18T15:03:44.491Z,4.73
2017-11-18T15:06:12.805Z,3.93
2017-11-18T15:08:41.142Z,4.73
2017-11-18T15:11:09.421Z,4.20
2017-11-18T15:13:37.727Z,4.10
2017-11-18T15:16:08.419Z,3.03
2017-11-18T15:21:42.502Z,3.43
2017-11-18T15:24:16.445Z,3.83
2017-11-18T15:26:50.249Z,4.00
2017-11-18T15:32:30.696Z,5.20
2017-11-18T15:35:15.094Z,4.40
2017-11-18T15:37:49.593Z,4.03
2017-11-18T15:40:17.985Z,4.90
2017-11-18T15:42:46.335Z,3.90
2017-11-18T15:45:16.659Z,4.83
2017-11-18T15:47:50.391Z,3.90
2017-11-18T15:50:19.629Z,4.40
2017-11-18T15:55:54.327Z,3.47
2017-11-18T15:58:23.462Z,3.07
2017-11-18T16:00:57.244Z,4.23
2017-11-18T16:03:26.371Z,6.03
2017-11-18T16:05:54.690Z,3.60
2017-11-18T16:08:22.990Z,3.70
2017-11-18T16:10:51.354Z,4.67
2017-11-18T16:13:20.509Z,3.80
2017-11-18T16:15:48.843Z,4.50
2017-11-18T16:18:17.292Z,4.07
2017-11-18T16:20:45.861Z,3.23
2017-11-18T16:23:14.818Z,3.50
2017-11-18T16:25:43.685Z,3.17
2017-11-18T16:28:13.415Z,3.40
2017-11-18T16:30:41.771Z,3.33
2017-11-18T16:33:10.158Z,4.30
2017-11-18T16:35:38.471Z,3.70
2017-11-18T16:38:06.795Z,3.70
2017-11-18T16:40:35.217Z,2.90
2017-11-18T16:43:03.622Z,3.63
2017-11-18T16:45:32.058Z,4.80
2017-11-18T16:48:00.497Z,3.90
2017-11-18T16:50:29.335Z,3.30
2017-11-18T16:52:58.201Z,3.10
2017-11-18T16:55:26.690Z,3.40
2017-11-18T16:57:55.151Z,3.20
2017-11-18T17:00:23.523Z,3.20
2017-11-18T17:02:52.000Z,4.13
2017-11-18T17:05:20.394Z,3.07
2017-11-18T17:07:51.941Z,3.53
2017-11-18T17:10:20.347Z,3.03
2017-11-18T17:12:48.777Z,3.17
2017-11-18T17:15:17.953Z,3.57
2017-11-18T17:17:47.009Z,3.50
2017-11-18T17:20:15.308Z,4.43
2017-11-18T17:22:43.645Z,3.30
2017-11-18T17:25:13.322Z,2.50
2017-11-18T17:27:41.634Z,3.47
2017-11-18T17:30:09.963Z,3.13
2017-11-18T17:32:38.378Z,3.47
2017-11-18T17:35:06.721Z,4.40
2017-11-18T17:37:35.870Z,3.83
2017-11-18T17:40:05.015Z,3.40
2017-11-18T17:42:33.580Z,3.03
2017-11-18T17:45:01.952Z,3.00
2017-11-18T17:47:30.295Z,3.50
2017-11-18T17:49:58.612Z,2.27
2017-11-18T17:52:27.669Z,3.20
2017-11-18T17:54:55.988Z,3.20
2017-11-18T17:57:24.483Z,2.30
2017-11-18T17:59:52.780Z,2.53
2017-11-18T18:02:21.079Z,3.00
2017-11-18T18:04:49.389Z,3.37
2017-11-18T18:07:17.732Z,3.60
2017-11-18T18:09:46.827Z,3.00
2017-11-18T18:12:15.114Z,3.07
2017-11-18T18:14:43.598Z,3.43
2017-11-18T18:17:12.668Z,3.50
2017-11-18T18:19:40.958Z,2.90
2017-11-18T18:22:09.301Z,2.83
2017-11-18T18:24:37.638Z,3.13
2017-11-18T18:27:05.947Z,2.53
2017-11-18T18:29:35.017Z,2.73
2017-11-18T18:32:03.365Z,2.40
2017-11-18T18:34:31.757Z,2.00
2017-11-18T18:37:00.085Z,3.30
2017-11-18T18:39:28.416Z,2.53
2017-11-18T18:41:56.712Z,3.73
2017-11-18T18:44:25.016Z,2.90
2017-11-18T18:46:54.147Z,3.57
2017-11-18T18:49:23.425Z,2.70
2017-11-18T18:51:51.855Z,2.67
2017-11-18T18:54:21.058Z,2.93
2017-11-18T18:56:50.197Z,2.80
2017-11-18T18:59:23.371Z,2.80
2017-11-18T19:01:51.686Z,2.13
2017-11-18T19:04:20.114Z,2.90
2017-11-18T19:06:49.188Z,2.83
2017-11-18T19:09:18.224Z,2.70
2017-11-18T19:11:46.638Z,2.70
2017-11-18T19:14:14.938Z,2.20
2017-11-18T19:16:44.056Z,2.90
2017-11-18T19:19:13.174Z,3.40
2017-11-18T19:21:42.227Z,3.67
2017-11-18T19:24:10.524Z,3.00
2017-11-18T19:26:39.618Z,3.40
2017-11-18T19:29:07.967Z,2.23
2017-11-18T19:31:36.256Z,3.27
2017-11-18T19:34:05.411Z,3.03
2017-11-18T19:36:33.936Z,3.67
2017-11-18T19:39:02.221Z,3.63
2017-11-18T19:41:30.535Z,3.67
2017-11-18T19:43:59.016Z,2.80
2017-11-18T19:46:27.299Z,3.73
2017-11-18T19:48:56.369Z,3.63
2017-11-18T19:51:25.474Z,3.10
2017-11-18T19:53:53.764Z,2.87
2017-11-18T19:56:22.063Z,3.27
2017-11-18T19:58:50.406Z,2.27
2017-11-18T20:01:19.483Z,3.20
2017-11-18T20:03:48.846Z,3.73
2017-11-18T20:06:17.184Z,4.70
2017-11-18T20:08:45.474Z,3.20
2017-11-18T20:11:13.869Z,4.10
2017-11-18T20:13:42.201Z,3.33
2017-11-18T20:16:10.494Z,3.00
2017-11-18T20:18:39.631Z,3.80
2017-11-18T20:21:07.956Z,3.87
2017-11-18T20:23:36.249Z,3.43
2017-11-18T20:26:04.536Z,4.27
2017-11-18T20:28:33.618Z,3.50
2017-11-18T20:31:01.906Z,4.40
2017-11-18T20:33:30.217Z,4.43
2017-11-18T20:35:58.555Z,4.63
2017-11-18T20:38:26.852Z,4.13
2017-11-18T20:40:55.256Z,3.90
2017-11-18T20:43:23.589Z,4.03
2017-11-18T20:45:51.930Z,4.17
2017-11-18T20:48:21.291Z,4.00
2017-11-18T20:50:49.716Z,3.90
2017-11-18T20:53:18.037Z,4.00
2017-11-18T20:55:46.421Z,4.20
2017-11-18T20:58:15.541Z,4.27
2017-11-18T21:00:43.848Z,4.13
2017-11-18T21:03:12.151Z,4.83
2017-11-18T21:05:40.545Z,4.57
2017-11-18T21:08:08.869Z,4.23
2017-11-18T21:10:38.130Z,4.93
2017-11-18T21:13:06.472Z,5.37
2017-11-18T21:15:35.567Z,4.30
2017-11-18T21:18:03.950Z,5.20
2017-11-18T21:20:33.059Z,3.87
2017-11-18T21:23:01.461Z,6.17
2017-11-18T21:25:29.764Z,5.20
2017-11-18T21:27:58.852Z,4.90
2017-11-18T21:30:27.143Z,5.43
2017-11-18T21:32:55.446Z,4.60
2017-11-18T21:35:24.564Z,5.00
2017-11-18T21:37:52.859Z,4.90
2017-11-18T21:40:21.152Z,5.63
2017-11-18T21:42:49.485Z,4.40
2017-11-18T21:45:17.804Z,5.50
2017-11-18T21:47:46.098Z,4.97
2017-11-18T21:50:14.452Z,5.90
2017-11-18T21:52:42.742Z,4.30
2017-11-18T21:55:11.104Z,5.17
2017-11-18T21:57:39.438Z,4.97
2017-11-18T22:00:07.736Z,4.80
2017-11-18T22:02:36.017Z,5.73
2017-11-18T22:05:04.351Z,4.97
2017-11-18T22:07:32.646Z,5.60
2017-11-18T22:10:00.959Z,5.60
2017-11-18T22:12:30.275Z,6.93
2017-11-18T22:14:58.585Z,6.40
2017-11-18T22:17:26.974Z,5.07
2017-11-18T22:19:55.287Z,6.90
2017-11-18T22:22:23.596Z,7.17
2017-11-18T22:24:53.460Z,6.37
2017-11-18T22:27:21.781Z,5.43
2017-11-18T22:29:50.109Z,5.97
2017-11-18T22:32:18.466Z,7.53
2017-11-18T22:34:46.785Z,5.93
2017-11-18T22:37:15.081Z,5.80
2017-11-18T22:39:44.180Z,6.83
2017-11-18T22:42:13.244Z,6.57
2017-11-18T22:44:42.345Z,6.47
2017-11-18T22:47:10.699Z,7.73
2017-11-18T22:49:38.990Z,7.43
2017-11-18T22:52:07.299Z,7.50
2017-11-18T22:54:35.616Z,7.33
2017-11-18T22:57:03.942Z,7.37
2017-11-18T22:59:32.400Z,7.70
2017-11-18T23:02:00.715Z,7.00
2017-11-18T23:04:29.008Z,8.13
2017-11-18T23:06:57.333Z,7.53
2017-11-18T23:09:25.641Z,7.37
2017-11-18T23:11:53.934Z,7.80
2017-11-18T23:14:22.998Z,7.47
2017-11-18T23:16:53.545Z,6.20
2017-11-18T23:19:21.849Z,6.70
2017-11-18T23:21:50.201Z,8.07
2017-11-18T23:24:19.269Z,7.20
2017-11-18T23:26:47.631Z,7.50
2017-11-18T23:29:15.959Z,6.43
2017-11-18T23:31:44.252Z,7.17
2017-11-18T23:34:12.563Z,6.67
2017-11-18T23:36:40.901Z,6.27
2017-11-18T23:39:09.208Z,8.20
2017-11-18T23:41:37.504Z,8.27
2017-11-18T23:44:05.827Z,7.83
2017-11-18T23:46:34.145Z,6.50
2017-11-18T23:49:04.280Z,6.73
2017-11-18T23:51:32.581Z,8.50
2017-11-18T23:54:01.851Z,8.93
2017-11-18T23:56:30.954Z,8.40
2017-11-18T23:58:59.338Z,7.33
